Time;durP1;ratioP1;P1;durP2;ratioP2;P2;SDS_P1;SDS_P2;PMS_P1;PMS_P2;Temp;Humidity;BMP_temperature;BMP_pressure;BME280_temperature;BME280_humidity;BME280_pressure;Samples;Min_cycle;Max_cycle;Signal;HPM_P1;HPM_P2
2022/10/02 00:01:50;;;;;;;9.63;2.50;;;12.30;99.90;;;;;;6042589;23;20061;-84
2022/10/02 00:04:24;;;;;;;10.25;2.17;;;12.30;99.90;;;;;;6042230;23;20392;-85
2022/10/02 00:06:56;;;;;;;8.88;2.15;;;12.20;99.90;;;;;;6066668;23;20213;-86
2022/10/02 00:09:30;;;;;;;10.60;2.67;;;12.20;99.90;;;;;;6066435;23;20080;-86
2022/10/02 00:11:58;;;;;;;13.15;2.30;;;12.20;99.90;;;;;;6066498;23;20246;-84
2022/10/02 00:14:27;;;;;;;9.80;2.60;;;12.10;99.90;;;;;;6018869;23;20089;-85
2022/10/02 00:16:56;;;;;;;13.07;2.72;;;12.10;99.90;;;;;;6067013;23;20046;-83
2022/10/02 00:19:22;;;;;;;13.50;2.97;;;12.10;99.90;;;;;;6066104;23;20021;-85
2022/10/02 00:22:10;;;;;;;12.02;2.90;;;12.10;99.90;;;;;;6067270;23;20010;-85
2022/10/02 00:24:42;;;;;;;10.95;2.55;;;12.10;99.90;;;;;;6066521;23;20254;-85
2022/10/02 00:27:35;;;;;;;16.02;3.53;;;12.00;99.90;;;;;;6067609;23;20014;-84
2022/10/02 00:30:04;;;;;;;14.57;3.53;;;12.00;99.90;;;;;;6063458;23;20338;-85
2022/10/02 00:32:52;;;;;;;13.10;3.30;;;12.00;99.90;;;;;;6066856;23;20097;-85
2022/10/02 00:35:45;;;;;;;16.48;3.47;;;12.00;99.90;;;;;;6066365;23;20014;-86
2022/10/02 00:38:10;;;;;;;12.77;3.40;;;12.00;99.90;;;;;;6067052;23;20022;-86
2022/10/02 00:40:45;;;;;;;17.08;4.00;;;12.00;99.90;;;;;;6066336;23;20018;-85
2022/10/02 00:43:27;;;;;;;14.57;3.40;;;11.90;99.90;;;;;;6043521;23;20440;-85
2022/10/02 00:46:22;;;;;;;16.17;3.83;;;11.90;99.90;;;;;;6042617;23;20105;-85
2022/10/02 00:49:25;;;;;;;12.93;3.53;;;11.90;99.90;;;;;;6066375;23;20022;-86
2022/10/02 00:51:59;;;;;;;15.15;3.60;;;11.80;99.90;;;;;;6065584;23;20476;-86
2022/10/02 00:54:52;;;;;;;15.27;3.42;;;11.80;99.90;;;;;;6041134;23;20025;-86
2022/10/02 00:57:27;;;;;;;;;;;11.80;99.90;;;;;;6042691;23;20018;-85
2022/10/02 01:00:08;;;;;;;14.23;3.47;;;11.80;99.90;;;;;;6066235;23;19913;-85
2022/10/02 01:02:58;;;;;;;15.63;3.53;;;11.70;99.90;;;;;;6066403;23;20077;-86
2022/10/02 01:05:26;;;;;;;12.25;3.05;;;11.70;99.90;;;;;;6043309;23;20018;-85
2022/10/02 01:07:53;;;;;;;12.65;3.35;;;11.60;99.90;;;;;;6067935;23;20010;-86
2022/10/02 01:10:21;;;;;;;18.90;3.65;;;11.60;99.90;;;;;;6068664;23;20007;-86
2022/10/02 01:12:51;;;;;;;14.00;3.17;;;11.60;99.90;;;;;;6044357;23;20010;-86
2022/10/02 01:15:20;;;;;;;15.45;3.33;;;11.60;99.90;;;;;;6045160;23;20041;-86
2022/10/02 01:17:49;;;;;;;13.52;3.05;;;11.50;99.90;;;;;;6066931;23;20021;-86
2022/10/02 01:20:34;;;;;;;14.15;3.15;;;11.50;99.90;;;;;;6043974;23;20010;-86
2022/10/02 01:23:29;;;;;;;15.77;3.50;;;11.50;99.90;;;;;;6044602;23;20006;-85
2022/10/02 01:25:56;;;;;;;17.65;3.75;;;11.50;99.90;;;;;;6069685;23;20446;-84
2022/10/02 01:28:22;;;;;;;14.95;3.28;;;11.40;99.90;;;;;;6044532;23;20105;-85
2022/10/02 01:30:51;;;;;;;15.38;3.20;;;11.40;99.90;;;;;;6021408;23;20056;-86
2022/10/02 01:33:17;;;;;;;13.10;2.97;;;11.40;99.90;;;;;;6045036;23;20042;-85
2022/10/02 01:35:43;;;;;;;15.27;3.30;;;11.40;99.90;;;;;;6044037;23;20508;-85
2022/10/02 01:38:12;;;;;;;14.20;3.65;;;11.40;99.90;;;;;;6068695;23;20010;-85
2022/10/02 01:40:39;;;;;;;17.70;3.45;;;11.40;99.90;;;;;;6045076;23;20050;-86
2022/10/02 01:43:13;;;;;;;15.70;3.75;;;11.40;99.90;;;;;;6068620;23;20026;-86
2022/10/02 01:45:52;;;;;;;12.93;2.92;;;11.40;99.90;;;;;;6045033;23;20045;-86
2022/10/02 01:48:23;;;;;;;14.25;3.42;;;11.50;99.90;;;;;;6068352;23;20064;-86
2022/10/02 01:51:08;;;;;;;16.60;3.35;;;11.50;99.90;;;;;;6045612;23;20010;-86
2022/10/02 01:53:49;;;;;;;13.38;3.00;;;11.40;99.90;;;;;;6068205;23;20015;-85
2022/10/02 01:56:44;;;;;;;14.07;3.20;;;11.50;99.90;;;;;;6045146;23;20078;-85
2022/10/02 01:59:22;;;;;;;19.58;3.17;;;11.50;99.90;;;;;;6068708;23;20089;-89
2022/10/02 02:02:08;;;;;;;18.63;3.78;;;11.50;99.90;;;;;;6044985;23;20046;-87
2022/10/02 02:04:58;;;;;;;16.67;3.10;;;11.60;99.90;;;;;;6043028;23;20308;-86
2022/10/02 02:07:42;;;;;;;20.35;3.22;;;11.60;99.90;;;;;;6069493;23;20033;-86
2022/10/02 02:10:15;;;;;;;13.18;2.85;;;11.60;99.90;;;;;;6043896;23;20511;-85
2022/10/02 02:13:00;;;;;;;15.70;3.30;;;11.60;99.90;;;;;;6044873;23;20018;-86
2022/10/02 02:15:51;;;;;;;17.60;3.05;;;11.60;99.90;;;;;;6067471;23;20070;-86
2022/10/02 02:18:38;;;;;;;15.30;3.00;;;11.60;99.90;;;;;;6025692;23;20014;-86
2022/10/02 02:21:21;;;;;;;17.17;2.97;;;11.60;99.90;;;;;;6044598;23;20018;-86
2022/10/02 02:23:47;;;;;;;;;;;11.60;99.90;;;;;;6044402;23;20014;-86
2022/10/02 02:26:17;;;;;;;14.18;2.92;;;11.60;99.90;;;;;;6043417;23;19964;-86
2022/10/02 02:28:49;;;;;;;12.93;3.03;;;11.60;99.90;;;;;;6044188;23;20076;-86
2022/10/02 02:31:18;;;;;;;18.92;2.97;;;11.60;99.90;;;;;;6044148;23;20467;-86
2022/10/02 02:33:49;;;;;;;16.83;3.35;;;11.50;99.90;;;;;;6044807;23;20022;-86
2022/10/02 02:36:18;;;;;;;12.90;2.67;;;11.50;99.90;;;;;;6068692;23;20018;-86
2022/10/02 02:38:59;;;;;;;15.35;2.80;;;11.50;99.90;;;;;;6043765;23;20014;-86
2022/10/02 02:41:29;;;;;;;12.30;2.17;;;11.50;99.90;;;;;;6043371;23;20503;-86
2022/10/02 02:44:07;;;;;;;15.65;3.30;;;11.50;99.90;;;;;;6044744;23;20014;-87
2022/10/02 02:47:05;;;;;;;14.45;3.13;;;11.50;99.90;;;;;;6044431;23;20072;-86
2022/10/02 02:49:46;;;;;;;14.32;2.90;;;11.50;99.90;;;;;;6068558;23;20085;-86
2022/10/02 02:52:35;;;;;;;13.55;2.67;;;11.60;99.90;;;;;;6067883;23;20077;-86
2022/10/02 02:55:15;;;;;;;14.05;2.83;;;11.50;99.90;;;;;;6066803;23;20024;-87
2022/10/02 02:58:05;;;;;;;11.52;2.80;;;11.60;99.90;;;;;;6043875;23;20015;-87
2022/10/02 03:00:31;;;;;;;10.18;2.53;;;11.60;99.90;;;;;;6043241;23;20512;-87
2022/10/02 03:02:57;;;;;;;13.75;2.45;;;11.60;99.90;;;;;;6067464;23;20045;-88
2022/10/02 03:05:24;;;;;;;13.88;2.40;;;11.70;99.90;;;;;;6043132;23;20011;-86
2022/10/02 03:07:56;;;;;;;12.43;2.47;;;11.70;99.90;;;;;;6043597;23;20090;-87
2022/10/02 03:10:47;;;;;;;16.75;3.00;;;12.00;99.90;;;;;;6044189;23;20083;-88
2022/10/02 03:13:52;;;;;;;13.32;2.67;;;11.80;99.90;;;;;;6067394;23;20018;-86
2022/10/02 03:16:23;;;;;;;12.07;2.65;;;11.80;99.90;;;;;;6044665;23;20041;-88
2022/10/02 03:19:36;;;;;;;14.07;2.78;;;11.90;99.90;;;;;;6044396;23;20042;-87
2022/10/02 03:22:14;;;;;;;14.23;2.55;;;11.90;99.90;;;;;;6044517;23;20021;-86
2022/10/02 03:24:56;;;;;;;14.57;3.08;;;12.10;99.90;;;;;;6043598;23;20048;-86
2022/10/02 03:27:42;;;;;;;13.15;2.60;;;11.90;99.90;;;;;;6067866;23;20089;-87
2022/10/02 03:30:10;;;;;;;13.80;2.40;;;11.90;99.90;;;;;;6067467;23;20479;-86
2022/10/02 03:32:39;;;;;;;13.35;2.70;;;11.90;99.90;;;;;;6068457;23;20046;-88
2022/10/02 03:35:10;;;;;;;12.50;2.97;;;11.90;99.90;;;;;;6043882;23;20014;-88
2022/10/02 03:37:37;;;;;;;14.27;2.47;;;11.90;99.90;;;;;;6043876;23;20018;-87
2022/10/02 03:40:05;;;;;;;15.23;3.00;;;11.90;99.90;;;;;;6069076;23;20014;-87
2022/10/02 03:42:33;;;;;;;12.23;2.83;;;12.00;99.90;;;;;;6044281;23;20017;-87
2022/10/02 03:44:59;;;;;;;13.32;2.35;;;12.00;99.90;;;;;;6043870;23;20472;-87
2022/10/02 03:47:25;;;;;;;17.70;2.80;;;12.00;99.90;;;;;;6044186;23;20050;-87
2022/10/02 03:49:51;;;;;;;13.20;2.65;;;12.00;99.90;;;;;;6068155;23;20015;-87
2022/10/02 03:52:19;;;;;;;14.30;2.50;;;12.00;99.90;;;;;;6020147;23;20077;-87
2022/10/02 03:54:47;;;;;;;15.52;2.83;;;12.00;99.90;;;;;;6043974;23;20018;-87
2022/10/02 03:57:24;;;;;;;17.27;2.80;;;12.00;99.90;;;;;;6043785;23;20022;-87
2022/10/02 04:00:00;;;;;;;16.10;3.15;;;12.00;99.90;;;;;;6044257;23;20014;-88
2022/10/02 04:02:33;;;;;;;17.45;2.90;;;12.00;99.90;;;;;;6067985;23;20018;-88
2022/10/02 04:05:16;;;;;;;15.85;3.22;;;12.00;99.90;;;;;;6067810;23;20010;-87
2022/10/02 04:07:45;;;;;;;15.15;2.85;;;11.90;99.90;;;;;;6043324;23;20018;-86
2022/10/02 04:10:43;;;;;;;15.43;2.90;;;11.90;99.90;;;;;;6043995;23;20054;-88
2022/10/02 04:13:20;;;;;;;14.85;2.92;;;11.90;99.90;;;;;;6067957;23;20073;-87
2022/10/02 04:16:07;;;;;;;19.58;3.42;;;11.80;99.90;;;;;;6043814;23;20018;-86
2022/10/02 04:18:59;;;;;;;13.43;2.65;;;11.80;99.90;;;;;;6066134;23;20021;-88
2022/10/02 04:21:47;;;;;;;17.38;3.00;;;11.80;99.90;;;;;;6041831;23;20011;-88
2022/10/02 04:24:26;;;;;;;14.93;3.08;;;11.80;99.90;;;;;;6043741;23;20045;-88
2022/10/02 04:26:58;;;;;;;13.50;2.72;;;11.80;99.90;;;;;;6043188;23;20464;-87
2022/10/02 04:29:38;;;;;;;15.15;2.88;;;11.80;99.90;;;;;;6042657;23;20025;-87
2022/10/02 04:32:19;;;;;;;15.75;2.72;;;11.80;99.90;;;;;;6042179;23;20157;-89
2022/10/02 04:34:45;;;;;;;12.77;2.88;;;11.80;99.90;;;;;;6043497;23;20018;-87
2022/10/02 04:37:34;;;;;;;15.38;2.80;;;11.80;99.90;;;;;;6019231;23;20018;-87
2022/10/02 04:40:33;;;;;;;16.77;3.40;;;11.80;99.90;;;;;;6043040;23;20341;-88
2022/10/02 04:43:22;;;;;;;13.60;2.67;;;11.70;99.90;;;;;;6067021;23;20089;-86
2022/10/02 04:45:58;;;;;;;15.48;3.13;;;11.80;99.90;;;;;;6066190;23;20020;-88
2022/10/02 04:48:57;;;;;;;15.68;2.90;;;11.70;99.90;;;;;;6041906;23;20058;-88
2022/10/02 04:51:56;;;;;;;10.20;2.30;;;11.70;99.90;;;;;;6041651;23;20021;-88
2022/10/02 04:55:21;;;;;;;19.27;3.65;;;11.70;99.90;;;;;;6067409;23;20042;-88
2022/10/02 04:58:17;;;;;;;15.80;2.70;;;11.70;99.90;;;;;;5901775;24;20025;-87
2022/10/02 05:01:19;;;;;;;15.48;2.55;;;11.70;99.90;;;;;;6090423;23;20018;-86
2022/10/02 05:03:59;;;;;;;14.05;3.40;;;11.70;99.90;;;;;;6066544;23;20019;-86
2022/10/02 05:06:47;;;;;;;16.60;3.17;;;11.60;99.90;;;;;;6066946;23;20037;-87
2022/10/02 05:09:30;;;;;;;18.27;2.80;;;11.60;99.90;;;;;;6042103;23;20046;-85
2022/10/02 05:12:14;;;;;;;16.92;2.90;;;11.60;99.90;;;;;;6042287;23;20134;-88
2022/10/02 05:14:48;;;;;;;11.90;2.72;;;11.60;99.90;;;;;;6065978;23;20483;-87
2022/10/02 05:17:29;;;;;;;16.20;2.90;;;11.50;99.90;;;;;;6066130;23;20074;-88
2022/10/02 05:20:05;;;;;;;13.27;2.72;;;11.50;99.90;;;;;;6042197;23;20010;-88
2022/10/02 05:22:48;;;;;;;18.00;2.90;;;11.50;99.90;;;;;;6065582;23;20423;-88
2022/10/02 05:25:21;;;;;;;18.80;2.60;;;11.50;99.90;;;;;;6066681;23;20030;-87
2022/10/02 05:28:11;;;;;;;14.80;2.63;;;11.50;99.90;;;;;;6067041;23;20125;-88
2022/10/02 05:30:53;;;;;;;17.48;3.00;;;11.40;99.90;;;;;;6042651;23;20022;-87
2022/10/02 05:33:48;;;;;;;16.50;2.95;;;11.40;99.90;;;;;;6064470;23;20022;-87
2022/10/02 05:36:54;;;;;;;14.90;3.05;;;11.40;99.90;;;;;;6066648;23;20058;-87
2022/10/02 05:39:27;;;;;;;17.38;2.95;;;11.40;99.90;;;;;;6066283;23;20025;-88
2022/10/02 05:41:58;;;;;;;14.50;3.03;;;11.40;99.90;;;;;;6042327;23;20019;-87
2022/10/02 05:44:39;;;;;;;16.55;2.88;;;11.40;99.90;;;;;;6041097;23;20014;-88
2022/10/02 05:47:18;;;;;;;20.05;2.90;;;11.40;99.90;;;;;;6042791;23;20029;-88
2022/10/02 05:49:50;;;;;;;12.93;2.42;;;11.40;99.90;;;;;;6066232;23;20093;-88
2022/10/02 05:52:18;;;;;;;19.30;3.20;;;11.40;99.90;;;;;;6042769;23;20456;-89
2022/10/02 05:55:01;;;;;;;15.60;3.17;;;11.40;99.90;;;;;;6042109;23;20103;-87
2022/10/02 05:57:35;;;;;;;14.52;3.38;;;11.30;99.90;;;;;;6044473;23;20404;-88
2022/10/02 06:00:16;;;;;;;14.25;2.72;;;11.30;99.90;;;;;;6044772;23;20018;-87
2022/10/02 06:02:47;;;;;;;16.23;2.90;;;11.30;99.90;;;;;;6068578;23;20014;-87
2022/10/02 06:05:31;;;;;;;15.57;2.65;;;11.30;99.90;;;;;;6044216;23;20014;-88
2022/10/02 06:08:01;;;;;;;11.90;2.50;;;11.30;99.90;;;;;;6044326;23;20052;-88
2022/10/02 06:10:34;;;;;;;15.77;2.88;;;11.30;99.90;;;;;;6069333;23;20018;-87
2022/10/02 06:13:07;;;;;;;15.88;3.05;;;11.30;99.90;;;;;;6045394;23;20112;-88
2022/10/02 06:15:45;;;;;;;15.88;3.13;;;11.30;99.90;;;;;;6044470;23;20344;-88
2022/10/02 06:18:22;;;;;;;20.63;3.15;;;11.40;99.90;;;;;;6068999;23;20471;-87
2022/10/02 06:21:14;;;;;;;14.63;2.95;;;11.40;99.90;;;;;;6043891;23;20101;-88
2022/10/02 06:23:45;;;;;;;15.27;2.63;;;11.40;99.90;;;;;;6043325;23;20018;-88
2022/10/02 06:26:41;;;;;;;17.95;3.13;;;11.40;99.90;;;;;;6068760;23;20018;-87
2022/10/02 06:29:38;;;;;;;19.95;3.13;;;11.50;99.90;;;;;;6068344;23;20097;-87
2022/10/02 06:32:53;;;;;;;13.25;2.83;;;11.50;99.90;;;;;;5994718;23;20027;-87
2022/10/02 06:35:41;;;;;;;20.30;3.03;;;11.60;99.90;;;;;;6029885;23;20022;-87
2022/10/02 06:38:26;;;;;;;13.65;2.75;;;11.60;99.90;;;;;;6067881;23;20030;-86
2022/10/02 06:41:01;;;;;;;19.30;3.33;;;11.70;99.90;;;;;;6068523;23;20014;-87
2022/10/02 06:43:27;;;;;;;18.52;2.60;;;11.70;99.90;;;;;;6044473;23;20073;-87
2022/10/02 06:46:08;;;;;;;19.17;3.15;;;11.80;99.90;;;;;;6044850;23;20459;-87
2022/10/02 06:48:48;;;;;;;25.23;3.13;;;11.80;99.90;;;;;;6044404;23;20344;-87
2022/10/02 06:51:15;;;;;;;14.15;2.67;;;11.90;99.90;;;;;;6068072;23;20011;-86
2022/10/02 06:54:10;;;;;;;16.60;3.10;;;12.00;99.90;;;;;;6043811;23;20066;-87
2022/10/02 06:56:55;;;;;;;15.27;3.03;;;12.10;99.90;;;;;;6042378;23;20483;-86
2022/10/02 06:59:34;;;;;;;15.80;2.83;;;12.20;99.90;;;;;;6066808;23;20083;-85
2022/10/02 07:02:21;;;;;;;14.95;2.80;;;12.30;99.90;;;;;;6068851;23;20015;-87
2022/10/02 07:05:06;;;;;;;15.38;3.08;;;12.50;99.90;;;;;;6043990;23;20404;-85
2022/10/02 07:07:58;;;;;;;16.63;2.90;;;12.50;99.90;;;;;;6044659;23;20054;-87
2022/10/02 07:10:43;;;;;;;17.30;3.40;;;12.60;99.90;;;;;;6040179;23;20023;-84
2022/10/02 07:13:25;;;;;;;15.45;2.75;;;12.50;99.90;;;;;;6067449;23;20089;-86
2022/10/02 07:16:26;;;;;;;14.95;3.22;;;12.50;99.90;;;;;;6043733;23;20312;-85
2022/10/02 07:19:12;;;;;;;15.35;2.88;;;12.50;99.90;;;;;;6043787;23;20453;-86
2022/10/02 07:21:47;;;;;;;15.18;3.50;;;12.50;99.90;;;;;;6066288;23;20077;-85
2022/10/02 07:24:37;;;;;;;14.60;2.83;;;12.60;99.90;;;;;;6038937;23;20014;-87
2022/10/02 07:27:17;;;;;;;16.40;2.92;;;12.60;99.90;;;;;;6041695;23;20445;-86
2022/10/02 07:30:07;;;;;;;16.20;3.03;;;12.60;99.90;;;;;;6067270;23;20476;-87
2022/10/02 07:33:08;;;;;;;16.40;2.85;;;12.60;99.90;;;;;;6041972;23;20022;-87
2022/10/02 07:35:50;;;;;;;13.65;2.70;;;12.60;99.90;;;;;;6043391;23;20018;-86
2022/10/02 07:38:19;;;;;;;16.47;2.87;;;12.60;99.90;;;;;;6041651;23;20026;-85
2022/10/02 07:41:22;;;;;;;17.00;3.40;;;12.70;99.90;;;;;;6042460;23;20010;-86
2022/10/02 07:44:07;;;;;;;16.92;2.92;;;12.70;99.90;;;;;;6044442;23;20011;-86
2022/10/02 07:46:53;;;;;;;20.40;3.10;;;12.80;99.90;;;;;;6064768;23;20041;-86
2022/10/02 07:49:26;;;;;;;18.65;3.38;;;12.90;99.90;;;;;;6041822;23;20368;-86
2022/10/02 07:52:01;;;;;;;15.82;3.05;;;13.00;99.90;;;;;;6040565;23;20029;-86
2022/10/02 07:55:07;;;;;;;15.18;2.95;;;13.10;99.90;;;;;;6066460;23;20481;-85
2022/10/02 07:58:04;;;;;;;15.77;2.92;;;13.20;99.90;;;;;;6024866;23;20022;-85
2022/10/02 08:00:58;;;;;;;13.25;2.80;;;13.20;99.90;;;;;;5982851;23;20089;-86
2022/10/02 08:03:30;;;;;;;15.10;2.97;;;13.20;99.90;;;;;;6057826;23;20085;-86
2022/10/02 08:05:58;;;;;;;17.48;3.40;;;13.20;99.90;;;;;;6065970;23;20072;-87
2022/10/02 08:08:49;;;;;;;14.65;3.15;;;13.20;99.90;;;;;;6043401;23;20014;-85
2022/10/02 08:11:23;;;;;;;16.98;3.00;;;13.20;99.90;;;;;;6067279;23;20011;-86
2022/10/02 08:13:54;;;;;;;19.30;3.10;;;13.20;99.90;;;;;;6065444;23;20349;-86
2022/10/02 08:16:25;;;;;;;16.25;3.05;;;13.20;99.90;;;;;;6043209;23;20018;-87
2022/10/02 08:19:10;;;;;;;13.90;2.80;;;13.20;99.90;;;;;;6041613;23;20014;-86
2022/10/02 08:21:41;;;;;;;15.27;2.88;;;13.30;99.90;;;;;;6065169;23;20014;-85
2022/10/02 08:24:16;;;;;;;13.98;2.70;;;13.30;99.90;;;;;;6041968;23;20010;-85
2022/10/02 08:26:47;;;;;;;13.18;2.78;;;13.40;99.90;;;;;;6043034;23;20029;-84
2022/10/02 08:29:39;;;;;;;10.95;2.85;;;13.50;99.90;;;;;;6066215;23;20356;-85
2022/10/02 08:32:12;;;;;;;12.77;2.60;;;13.50;99.90;;;;;;6067823;23;20053;-84
2022/10/02 08:34:40;;;;;;;13.57;2.70;;;13.50;99.90;;;;;;6065511;23;20022;-84
2022/10/02 08:37:28;;;;;;;13.13;3.05;;;13.50;99.90;;;;;;6066024;23;20127;-84
2022/10/02 08:39:57;;;;;;;14.23;2.47;;;13.50;99.90;;;;;;6040838;23;20018;-85
2022/10/02 08:42:43;;;;;;;17.63;3.17;;;13.50;99.90;;;;;;6042879;23;20061;-85
2022/10/02 08:45:33;;;;;;;11.25;2.47;;;13.50;99.90;;;;;;6063987;23;20042;-84
2022/10/02 08:48:38;;;;;;;13.98;3.03;;;13.50;99.90;;;;;;6040069;23;20022;-84
2022/10/02 08:51:12;;;;;;;12.07;2.30;;;13.50;99.90;;;;;;6065113;23;20022;-84
2022/10/02 08:53:50;;;;;;;11.93;2.55;;;13.50;99.90;;;;;;6040451;23;20349;-84
2022/10/02 08:56:46;;;;;;;11.65;2.50;;;13.50;99.90;;;;;;6064100;23;20018;-84
2022/10/02 08:59:58;;;;;;;12.50;2.67;;;13.50;99.90;;;;;;6066070;23;20014;-84
2022/10/02 09:02:42;;;;;;;13.77;2.83;;;13.60;99.90;;;;;;6064581;23;20007;-84
2022/10/02 09:06:01;;;;;;;13.38;2.90;;;13.50;99.90;;;;;;6042555;23;20014;-85
2022/10/02 09:08:50;;;;;;;13.07;2.75;;;13.50;99.90;;;;;;5900899;24;20069;-84
2022/10/02 09:11:49;;;;;;;15.10;3.33;;;13.60;99.90;;;;;;5924704;24;20514;-86
2022/10/02 09:15:09;;;;;;;13.23;2.67;;;13.50;99.90;;;;;;6059543;23;20019;-86
2022/10/02 09:18:10;;;;;;;14.80;3.03;;;13.60;99.90;;;;;;5898816;24;20355;-85
2022/10/02 09:20:50;;;;;;;12.15;2.42;;;13.60;99.90;;;;;;5894032;24;20477;-86
2022/10/02 09:23:46;;;;;;;14.63;2.70;;;13.70;99.90;;;;;;6053167;23;20045;-86
2022/10/02 09:26:30;;;;;;;11.73;2.30;;;13.80;99.90;;;;;;6042758;23;20022;-86
2022/10/02 09:29:15;;;;;;;16.02;3.08;;;13.80;99.90;;;;;;6044455;23;20374;-87
2022/10/02 09:32:08;;;;;;;13.45;2.90;;;13.80;99.90;;;;;;6066695;23;20022;-86
2022/10/02 09:34:46;;;;;;;10.98;2.60;;;13.80;99.90;;;;;;6040794;23;20025;-86
2022/10/02 09:37:33;;;;;;;11.15;2.53;;;13.80;99.90;;;;;;6041130;23;20410;-84
2022/10/02 09:40:17;;;;;;;11.00;2.70;;;13.80;99.90;;;;;;6064060;23;20018;-85
2022/10/02 09:42:45;;;;;;;13.52;2.50;;;14.00;99.90;;;;;;6044463;23;20010;-86
2022/10/02 09:45:36;;;;;;;9.95;2.25;;;14.10;99.90;;;;;;6045212;23;20016;-85
2022/10/02 09:48:23;;;;;;;9.05;2.50;;;14.30;99.90;;;;;;6044436;23;20015;-85
2022/10/02 09:51:23;;;;;;;12.32;2.72;;;14.50;99.90;;;;;;6044792;23;20014;-85
2022/10/02 09:54:41;;;;;;;10.75;2.42;;;14.60;99.90;;;;;;6069093;23;20019;-86
2022/10/02 09:57:47;;;;;;;13.65;2.72;;;14.70;99.90;;;;;;5920577;23;20380;-85
2022/10/02 10:00:32;;;;;;;14.55;3.30;;;14.90;99.90;;;;;;6044545;23;20090;-85
2022/10/02 10:03:51;;;;;;;13.38;2.65;;;15.00;99.90;;;;;;6068888;23;20021;-85
2022/10/02 10:06:49;;;;;;;12.82;2.55;;;15.10;99.90;;;;;;5949440;24;20091;-85
2022/10/02 10:10:00;;;;;;;12.77;2.63;;;15.30;99.90;;;;;;6068475;23;20026;-86
2022/10/02 10:12:28;;;;;;;14.95;3.28;;;15.40;99.90;;;;;;6044387;23;20456;-84
2022/10/02 10:15:42;;;;;;;14.75;3.25;;;15.50;99.90;;;;;;6068884;23;20397;-85
2022/10/02 10:18:40;;;;;;;15.75;2.65;;;15.60;99.90;;;;;;6032644;23;20104;-85
2022/10/02 10:21:24;;;;;;;16.13;2.80;;;15.80;99.90;;;;;;6044114;23;20029;-85
2022/10/02 10:23:52;;;;;;;15.75;2.85;;;15.90;99.90;;;;;;6068648;23;20014;-85
2022/10/02 10:26:44;;;;;;;13.13;3.13;;;16.00;99.90;;;;;;6045018;23;20142;-84
2022/10/02 10:29:23;;;;;;;15.02;2.80;;;15.90;99.90;;;;;;6044415;23;20070;-84
2022/10/02 10:32:06;;;;;;;14.35;3.35;;;15.80;99.90;;;;;;6044356;23;20549;-85
2022/10/02 10:35:03;;;;;;;13.20;2.53;;;15.50;99.90;;;;;;6044545;23;20109;-84
2022/10/02 10:40:37;;;;;;;12.73;3.08;;;15.30;99.90;;;;;;6065016;23;20050;-85
2022/10/02 10:43:14;;;;;;;12.32;3.13;;;15.50;99.90;;;;;;6043274;23;20015;-84
2022/10/02 10:45:46;;;;;;;14.05;2.78;;;15.70;99.90;;;;;;6044221;23;20111;-84
2022/10/02 10:48:30;;;;;;;12.25;2.40;;;15.90;99.90;;;;;;6042957;23;20046;-83
2022/10/02 10:51:22;;;;;;;10.10;2.58;;;15.70;99.90;;;;;;6065157;23;20018;-84
2022/10/02 10:54:15;;;;;;;14.80;2.72;;;15.50;99.90;;;;;;5974743;23;20021;-85
2022/10/02 10:56:48;;;;;;;14.07;3.15;;;15.40;99.90;;;;;;6041574;23;20045;-85
2022/10/02 10:59:26;;;;;;;16.52;3.20;;;15.30;99.90;;;;;;6040899;23;20041;-84
2022/10/02 11:02:03;;;;;;;15.40;2.95;;;15.20;99.90;;;;;;6041717;23;20046;-84
2022/10/02 11:04:54;;;;;;;16.88;2.85;;;15.20;99.90;;;;;;6064156;23;20073;-84
2022/10/02 11:07:49;;;;;;;13.80;3.15;;;15.30;99.90;;;;;;6039796;23;20097;-84
2022/10/02 11:10:36;;;;;;;16.25;3.55;;;15.50;99.90;;;;;;6041360;23;20448;-84
2022/10/02 11:13:36;;;;;;;13.73;2.92;;;15.70;99.90;;;;;;6042480;23;20018;-85
2022/10/02 11:16:16;;;;;;;14.80;3.10;;;15.90;99.90;;;;;;6063463;23;20022;-84
2022/10/02 11:18:45;;;;;;;14.45;2.85;;;16.40;99.90;;;;;;6042066;23;20508;-84
2022/10/02 11:21:14;;;;;;;13.55;2.72;;;16.20;99.90;;;;;;6042898;23;20479;-84
2022/10/02 11:24:02;;;;;;;14.63;2.92;;;16.20;99.90;;;;;;6037608;23;20015;-84
2022/10/02 11:26:59;;;;;;;15.60;2.95;;;16.10;99.90;;;;;;6037751;23;20073;-84
2022/10/02 11:29:41;;;;;;;13.15;2.35;;;16.10;99.90;;;;;;6039350;23;20460;-84
2022/10/02 11:32:44;;;;;;;11.38;2.67;;;16.20;99.90;;;;;;6041110;23;20022;-85
2022/10/02 11:35:18;;;;;;;12.63;2.55;;;16.30;99.90;;;;;;6064831;23;20018;-85
2022/10/02 11:38:02;;;;;;;11.98;2.50;;;16.40;99.90;;;;;;6064170;23;20018;-85
2022/10/02 11:40:49;;;;;;;12.57;2.42;;;16.50;99.90;;;;;;6064927;23;20065;-86
2022/10/02 11:43:21;;;;;;;12.65;2.42;;;16.40;99.90;;;;;;6039562;23;20014;-85
2022/10/02 11:46:07;;;;;;;13.02;2.83;;;16.20;99.90;;;;;;6062597;23;20094;-84
2022/10/02 11:48:57;;;;;;;13.00;2.70;;;16.00;99.90;;;;;;6063272;23;20111;-84
2022/10/02 11:51:38;;;;;;;14.30;2.45;;;16.00;99.90;;;;;;6063264;23;20010;-84
2022/10/02 11:54:32;;;;;;;12.85;2.38;;;16.10;99.90;;;;;;6064023;23;20448;-85
2022/10/02 11:57:28;;;;;;;13.55;3.38;;;16.30;99.90;;;;;;6062638;23;20558;-83
2022/10/02 12:00:12;;;;;;;12.05;2.90;;;16.50;99.90;;;;;;6061259;23;20018;-85
2022/10/02 12:03:00;;;;;;;12.25;2.72;;;16.70;99.90;;;;;;6064509;23;20036;-84
2022/10/02 12:05:36;;;;;;;11.88;2.60;;;16.70;99.90;;;;;;6040600;23;20451;-86
2022/10/02 12:08:29;;;;;;;12.68;2.40;;;16.80;99.90;;;;;;6038429;23;20550;-84
2022/10/02 12:11:14;;;;;;;12.33;2.87;;;16.70;99.90;;;;;;6039987;23;20014;-83
2022/10/02 12:13:49;;;;;;;12.35;2.40;;;16.70;99.90;;;;;;6063364;23;20015;-85
2022/10/02 12:16:29;;;;;;;10.35;2.15;;;16.80;99.90;;;;;;6041647;23;20019;-85
2022/10/02 12:19:16;;;;;;;13.40;2.47;;;16.80;99.90;;;;;;6041637;23;20025;-84
2022/10/02 12:27:49;;;;;;;12.95;2.55;;;16.90;99.90;;;;;;6065912;23;20030;-86
2022/10/02 12:31:03;;;;;;;13.90;2.88;;;16.70;99.90;;;;;;6039237;23;20034;-84
2022/10/02 12:33:53;;;;;;;9.82;2.35;;;16.50;99.90;;;;;;5898007;24;20024;-84
2022/10/02 12:36:18;;;;;;;12.13;2.30;;;16.30;99.90;;;;;;5898576;24;20181;-84
2022/10/02 12:38:57;;;;;;;13.70;3.00;;;16.10;99.90;;;;;;6032394;23;20028;-84
2022/10/02 12:41:35;;;;;;;14.02;2.60;;;16.00;99.90;;;;;;6037922;23;20516;-84
2022/10/02 12:44:43;;;;;;;12.90;3.00;;;16.00;99.90;;;;;;6039608;23;20010;-87
2022/10/02 12:47:47;;;;;;;17.75;2.70;;;15.90;99.90;;;;;;6038925;23;20507;-84
2022/10/02 12:50:32;;;;;;;;;;;15.80;99.90;;;;;;6065524;23;20168;-84
2022/10/02 12:53:22;;;;;;;10.23;2.42;;;15.80;99.90;;;;;;6061780;23;20004;-85
2022/10/02 12:56:06;;;;;;;12.77;2.70;;;15.70;99.90;;;;;;6040131;23;20014;-85
2022/10/02 12:58:45;;;;;;;15.38;3.05;;;15.80;99.90;;;;;;6063656;23;20334;-84
2022/10/02 13:01:30;;;;;;;14.18;3.33;;;15.90;99.90;;;;;;6067467;23;20014;-85
2022/10/02 13:04:28;;;;;;;14.73;2.88;;;16.10;99.90;;;;;;6042416;23;20018;-85
2022/10/02 13:07:09;;;;;;;16.63;3.00;;;16.20;99.90;;;;;;6067209;23;20010;-86
2022/10/02 13:10:01;;;;;;;15.32;2.70;;;16.40;99.90;;;;;;6066078;23;20484;-85
2022/10/02 13:12:31;;;;;;;12.93;2.78;;;16.50;99.90;;;;;;6025773;23;20014;-85
2022/10/02 13:15:00;;;;;;;15.57;2.47;;;16.50;99.90;;;;;;6044560;23;20029;-85
2022/10/02 13:17:44;;;;;;;12.23;2.80;;;16.60;99.90;;;;;;6067959;23;20093;-85
2022/10/02 13:20:20;;;;;;;13.63;2.90;;;16.60;99.90;;;;;;6043230;23;20018;-86
2022/10/02 13:23:02;;;;;;;20.02;3.30;;;16.30;99.90;;;;;;6044380;23;20061;-85
2022/10/02 13:25:38;;;;;;;15.40;3.42;;;16.10;99.90;;;;;;6067940;23;20025;-86
2022/10/02 13:28:22;;;;;;;15.50;3.15;;;15.90;99.90;;;;;;6067494;23;21057;-85
2022/10/02 13:30:56;;;;;;;19.30;2.90;;;16.00;99.90;;;;;;6039877;23;20027;-85
2022/10/02 13:33:50;;;;;;;12.57;2.85;;;16.20;99.90;;;;;;6066690;23;20023;-85
2022/10/02 13:36:21;;;;;;;12.45;2.60;;;16.30;99.90;;;;;;6067321;23;20073;-85
2022/10/02 13:38:56;;;;;;;15.10;2.95;;;16.40;99.90;;;;;;6044052;23;20018;-84
2022/10/02 13:41:28;;;;;;;14.23;3.20;;;16.30;99.90;;;;;;6043530;23;20022;-86
2022/10/02 13:44:12;;;;;;;11.10;2.35;;;16.30;99.90;;;;;;6041982;23;20014;-85
2022/10/02 13:46:56;;;;;;;12.25;2.97;;;16.30;99.90;;;;;;6041532;23;20022;-84
2022/10/02 13:49:31;;;;;;;14.82;3.00;;;16.30;99.90;;;;;;6065767;23;20014;-85
2022/10/02 13:52:15;;;;;;;14.05;2.95;;;16.40;99.90;;;;;;6066688;23;20356;-85
2022/10/02 13:54:48;;;;;;;13.13;2.40;;;16.50;99.90;;;;;;6066332;23;20022;-84
2022/10/02 13:57:35;;;;;;;14.52;2.60;;;16.50;99.90;;;;;;6043828;23;20075;-84
2022/10/02 14:00:07;;;;;;;13.20;2.80;;;17.10;99.90;;;;;;6041530;23;20019;-84
2022/10/02 14:02:45;;;;;;;12.07;2.67;;;16.50;99.90;;;;;;6067456;23;20033;-84
2022/10/02 14:05:24;;;;;;;14.57;3.28;;;16.30;99.90;;;;;;6064001;23;20053;-84